createdAt,value
2022-11-19T00:05:17.061Z,1013.3
2022-11-19T00:11:11.894Z,1013.3
2022-11-19T00:16:33.376Z,1013.4
2022-11-19T00:22:09.877Z,1013.4
2022-11-19T00:27:24.812Z,1013.4
2022-11-19T00:33:21.760Z,1013.5
2022-11-19T00:38:56.341Z,1013.5
2022-11-19T00:44:14.123Z,1013.5
2022-11-19T00:49:38.404Z,1013.6
2022-11-19T00:55:06.257Z,1013.6
2022-11-19T01:00:41.682Z,1013.6
2022-11-19T01:06:27.733Z,1013.7
2022-11-19T01:12:00.831Z,1013.7
2022-11-19T01:17:11.861Z,1013.7
2022-11-19T01:22:46.116Z,1013.8
2022-11-19T01:28:27.067Z,1013.9
2022-11-19T01:34:06.209Z,1013.9
2022-11-19T01:39:46.629Z,1014.1
2022-11-19T01:45:15.273Z,1014.2
2022-11-19T01:50:30.700Z,1014.1
2022-11-19T01:56:11.463Z,1014.2
2022-11-19T02:01:50.105Z,1014
2022-11-19T02:07:15.196Z,1014
2022-11-19T02:12:34.493Z,1014.1
2022-11-19T02:18:21.581Z,1014
2022-11-19T02:23:54.380Z,1014
2022-11-19T02:29:18.124Z,1014
2022-11-19T02:34:39.799Z,1014.1
2022-11-19T02:40:24.960Z,1014
2022-11-19T02:45:46.389Z,1014
2022-11-19T02:51:17.125Z,1013.9
2022-11-19T02:56:52.959Z,1014
2022-11-19T03:02:38.897Z,1014
2022-11-19T03:08:11.053Z,1014
2022-11-19T03:13:49.136Z,1014
2022-11-19T03:19:00.289Z,1014
2022-11-19T03:24:41.131Z,1014
2022-11-19T03:30:07.005Z,1014.1
2022-11-19T03:35:43.486Z,1014
2022-11-19T03:41:22.571Z,1014
2022-11-19T03:47:02.975Z,1014
2022-11-19T03:52:20.795Z,1013.9
2022-11-19T03:57:39.683Z,1013.9
2022-11-19T04:03:36.303Z,1013.9
2022-11-19T04:08:54.815Z,1013.9
2022-11-19T04:14:15.802Z,1014.1
2022-11-19T04:19:52.329Z,1013.9
2022-11-19T04:25:39.866Z,1013.9
2022-11-19T04:31:07.318Z,1013.9
2022-11-19T04:36:45.529Z,1013.9
2022-11-19T04:41:54.653Z,1013.9
2022-11-19T04:47:36.014Z,1013.8
2022-11-19T04:53:04.080Z,1014.1
2022-11-19T04:58:43.183Z,1014.1
2022-11-19T05:04:07.340Z,1014
2022-11-19T05:09:53.238Z,1014.1
2022-11-19T05:15:17.477Z,1014.2
2022-11-19T05:20:46.590Z,1014.1
2022-11-19T05:26:25.968Z,1014.2
2022-11-19T05:32:03.866Z,1014.2
2022-11-19T05:37:32.818Z,1014.2
2022-11-19T05:43:10.327Z,1014.2
2022-11-19T05:48:19.559Z,1014.1
2022-11-19T05:54:06.508Z,1014.2
2022-11-19T05:59:42.407Z,1014.4
2022-11-19T06:05:14.274Z,1014.4
2022-11-19T06:10:39.955Z,1014.4
2022-11-19T06:16:19.664Z,1014.5
2022-11-19T06:21:53.070Z,1014.4
2022-11-19T06:27:10.744Z,1014.6
2022-11-19T06:32:42.189Z,1014.7
2022-11-19T06:38:34.176Z,1014.8
2022-11-19T06:44:00.786Z,1014.8
2022-11-19T06:49:20.042Z,1014.9
2022-11-19T06:54:44.195Z,1014.9
2022-11-19T07:00:32.173Z,1014.9
2022-11-19T07:06:09.560Z,1015
2022-11-19T07:11:43.902Z,1015.1
2022-11-19T07:17:13.895Z,1015.1
2022-11-19T07:22:36.211Z,1015
2022-11-19T07:27:58.157Z,1015
2022-11-19T07:33:38.859Z,1015
2022-11-19T07:39:19.268Z,1015
2022-11-19T07:44:54.728Z,1015
2022-11-19T07:50:30.001Z,1015.1
2022-11-19T07:55:47.750Z,1015.2
2022-11-19T08:01:18.938Z,1015.1
2022-11-19T08:07:00.572Z,1015.1
2022-11-19T08:12:20.856Z,1015.2
2022-11-19T08:17:46.187Z,1015.1
2022-11-19T08:23:27.327Z,1015.2
2022-11-19T08:28:58.770Z,1015
2022-11-19T08:34:29.043Z,1015.1
2022-11-19T08:40:01.105Z,1015.1
2022-11-19T08:45:49.478Z,1015.1
2022-11-19T08:51:16.513Z,1015.2
2022-11-19T08:56:38.506Z,1015.1
2022-11-19T09:02:05.204Z,1015
2022-11-19T09:07:44.841Z,1014.8
2022-11-19T09:13:27.777Z,1015
2022-11-19T09:18:58.020Z,1015
2022-11-19T09:24:26.525Z,1014.8
2022-11-19T09:29:54.306Z,1014.8
2022-11-19T09:35:39.554Z,1014.7
2022-11-19T09:41:11.330Z,1014.6
2022-11-19T09:46:29.420Z,1014.6
2022-11-19T09:52:21.828Z,1014.4
2022-11-19T09:57:28.757Z,1014.1
2022-11-19T10:03:03.331Z,1013.8
2022-11-19T10:08:35.264Z,1013.7
2022-11-19T10:14:06.046Z,1013.7
2022-11-19T10:19:47.428Z,1013.8
2022-11-19T10:25:08.178Z,1013.9
2022-11-19T10:31:08.663Z,1014
2022-11-19T10:36:31.413Z,1013.8
2022-11-19T10:42:01.094Z,1013.5
2022-11-19T10:47:30.609Z,1013.7
2022-11-19T10:52:52.513Z,1013.7
2022-11-19T10:58:30.979Z,1013.7
2022-11-19T11:04:20.158Z,1013.6
2022-11-19T11:09:56.661Z,1013.5
2022-11-19T11:15:02.401Z,1013.5
2022-11-19T11:20:59.045Z,1013.3
2022-11-19T11:26:22.176Z,1013.3
2022-11-19T11:32:00.532Z,1013.4
2022-11-19T11:37:42.375Z,1013.7
2022-11-19T11:42:47.082Z,1013.8
2022-11-19T11:48:22.769Z,1013.9
2022-11-19T11:54:07.595Z,1013.7
2022-11-19T11:59:24.381Z,1013.6
2022-11-19T12:05:24.223Z,1013.5
2022-11-19T12:10:32.796Z,1013.5
2022-11-19T12:16:23.100Z,1013.5
2022-11-19T12:21:45.115Z,1013.5
2022-11-19T12:27:25.759Z,1013.3
2022-11-19T12:32:56.455Z,1013.4
2022-11-19T12:38:16.648Z,1013.2
2022-11-19T12:44:05.925Z,1013
2022-11-19T12:49:27.224Z,1013.1
2022-11-19T12:55:03.965Z,1013
2022-11-19T13:00:52.123Z,1013.2
2022-11-19T13:06:22.064Z,1013.3
2022-11-19T13:11:54.354Z,1013.2
2022-11-19T13:17:10.274Z,1013.2
2022-11-19T13:22:50.433Z,1013.3
2022-11-19T13:28:30.987Z,1013.2
2022-11-19T13:33:53.814Z,1013.2
2022-11-19T13:39:38.490Z,1013.2
2022-11-19T13:45:17.296Z,1013.1
2022-11-19T13:50:37.637Z,1013.2
2022-11-19T13:55:57.172Z,1013.4
2022-11-19T14:01:38.849Z,1013.2
2022-11-19T14:07:07.726Z,1013.3
2022-11-19T14:12:36.816Z,1013.3
2022-11-19T14:18:20.438Z,1013.3
2022-11-19T14:23:41.482Z,1013.3
2022-11-19T14:29:34.498Z,1013.3
2022-11-19T14:35:09.860Z,1013.3
2022-11-19T14:40:31.291Z,1013.3
2022-11-19T14:46:12.374Z,1013.3
2022-11-19T14:51:51.804Z,1013.5
2022-11-19T14:57:02.257Z,1013.5
2022-11-19T15:02:33.900Z,1013.6
2022-11-19T15:08:32.967Z,1013.8
2022-11-19T15:14:01.238Z,1013.7
2022-11-19T15:19:23.607Z,1013.8
2022-11-19T15:24:52.301Z,1013.8
2022-11-19T15:30:44.975Z,1013.9
2022-11-19T15:35:56.808Z,1013.9
2022-11-19T15:41:39.729Z,1014
2022-11-19T15:46:59.639Z,1014
2022-11-19T15:52:36.918Z,1014
2022-11-19T15:58:26.143Z,1014.2
2022-11-19T16:03:56.719Z,1014.2
2022-11-19T16:09:14.199Z,1014.2
2022-11-19T16:15:03.693Z,1014.3
2022-11-19T16:20:40.687Z,1014.2
2022-11-19T16:25:55.365Z,1014.4
2022-11-19T16:31:51.850Z,1014.3
2022-11-19T16:37:20.595Z,1014.4
2022-11-19T16:42:47.054Z,1014.5
2022-11-19T16:48:10.419Z,1014.5
2022-11-19T16:53:51.054Z,1014.5
2022-11-19T16:59:20.935Z,1014.5
2022-11-19T17:04:55.567Z,1014.5
2022-11-19T17:10:40.405Z,1014.7
2022-11-19T17:16:14.380Z,1014.6
2022-11-19T17:21:49.997Z,1014.8
2022-11-19T17:27:27.894Z,1014.8
2022-11-19T17:32:46.923Z,1015
2022-11-19T17:38:26.970Z,1015.2
2022-11-19T17:43:44.079Z,1015
2022-11-19T17:49:16.046Z,1015.1
2022-11-19T17:55:05.694Z,1015
2022-11-19T18:00:37.174Z,1015
2022-11-19T18:06:04.815Z,1015
2022-11-19T18:11:34.603Z,1015.1
2022-11-19T18:17:04.624Z,1015.3
2022-11-19T18:22:32.390Z,1015.2
2022-11-19T18:28:22.021Z,1015.4
2022-11-19T18:33:42.917Z,1015.5
2022-11-19T18:39:15.347Z,1015.6
2022-11-19T18:45:01.249Z,1015.6
2022-11-19T18:50:43.232Z,1015.7
2022-11-19T18:56:08.783Z,1015.8
2022-11-19T19:01:47.533Z,1015.8
2022-11-19T19:07:21.516Z,1016
2022-11-19T19:12:40.658Z,1015.9
2022-11-19T19:18:07.855Z,1015.9
2022-11-19T19:24:03.104Z,1015.9
2022-11-19T19:29:16.494Z,1015.9
2022-11-19T19:34:57.281Z,1016.2
2022-11-19T19:40:36.349Z,1016.2
2022-11-19T19:45:53.366Z,1016.3
2022-11-19T19:51:45.489Z,1016.3
2022-11-19T19:56:59.410Z,1016.2
2022-11-19T20:02:44.836Z,1016.1
2022-11-19T20:08:05.511Z,1015.9
2022-11-19T20:13:54.841Z,1016
2022-11-19T20:19:22.526Z,1016
2022-11-19T20:25:02.283Z,1016.1
2022-11-19T20:30:38.937Z,1016.1
2022-11-19T20:35:51.138Z,1016.3
2022-11-19T20:41:33.006Z,1016.5
2022-11-19T20:47:11.257Z,1016.6
2022-11-19T20:52:38.215Z,1016.5
2022-11-19T20:58:23.587Z,1016.6
2022-11-19T21:03:56.274Z,1016.7
2022-11-19T21:09:14.832Z,1016.7
2022-11-19T21:14:34.836Z,1016.8
2022-11-19T21:20:18.553Z,1016.8
2022-11-19T21:25:55.959Z,1016.7
2022-11-19T21:31:36.685Z,1017
2022-11-19T21:37:10.096Z,1017.2
2022-11-19T21:42:17.449Z,1017.5
2022-11-19T21:47:56.601Z,1017.6
2022-11-19T21:53:18.837Z,1017.7
2022-11-19T21:59:15.607Z,1017.6
2022-11-19T22:04:40.050Z,1017.7
2022-11-19T22:09:56.755Z,1017.8
2022-11-19T22:15:30.606Z,1017.6
2022-11-19T22:21:23.563Z,1017.5
2022-11-19T22:26:32.992Z,1017.3
2022-11-19T22:32:23.620Z,1017.1
2022-11-19T22:37:40.526Z,1017.1
2022-11-19T22:43:10.051Z,1017
2022-11-19T22:49:03.198Z,1016.9
2022-11-19T22:54:26.188Z,1016.9
2022-11-19T22:59:59.171Z,1016.9
2022-11-19T23:05:26.922Z,1016.9
2022-11-19T23:11:02.087Z,1016.7
2022-11-19T23:16:39.379Z,1017
2022-11-19T23:21:54.577Z,1017.2
2022-11-19T23:27:34.473Z,1017.4
2022-11-19T23:33:20.628Z,1017.6
2022-11-19T23:38:34.725Z,1017.7
2022-11-19T23:44:14.591Z,1017.7
2022-11-19T23:49:56.835Z,1017.7
2022-11-19T23:55:28.477Z,1017.6
